Time;durP1;ratioP1;P1;durP2;ratioP2;P2;SDS_P1;SDS_P2;PMS_P1;PMS_P2;Temp;Humidity;BMP_temperature;BMP_pressure;BME280_temperature;BME280_humidity;BME280_pressure;Samples;Min_cycle;Max_cycle;Signal;HPM_P1;HPM_P2
2023/03/08 00:00:09;;;;;;;19.75;16.42;;;;;;;1.12;100.00;99875.88;5028477;28;20496;-68
2023/03/08 00:02:35;;;;;;;24.38;17.80;;;;;;;1.15;100.00;99870.19;5029428;28;20056;-70
2023/03/08 00:05:00;;;;;;;20.48;17.10;;;;;;;1.09;100.00;99873.59;5032953;28;20029;-68
2023/03/08 00:07:26;;;;;;;20.13;17.17;;;;;;;1.08;100.00;99871.13;5031780;28;20021;-71
2023/03/08 00:09:51;;;;;;;21.85;17.70;;;;;;;1.09;100.00;99862.94;5029979;28;20116;-71
2023/03/08 00:12:18;;;;;;;22.85;18.30;;;;;;;1.13;100.00;99872.19;5032591;28;20108;-70
2023/03/08 00:14:44;;;;;;;22.55;18.08;;;;;;;1.15;100.00;99867.53;5030982;28;20477;-71
2023/03/08 00:17:11;;;;;;;20.65;17.92;;;;;;;1.17;100.00;99865.47;5032494;28;20057;-69
2023/03/08 00:19:37;;;;;;;22.17;17.60;;;;;;;1.15;100.00;99864.84;5013512;28;20072;-72
2023/03/08 00:22:03;;;;;;;22.30;18.38;;;;;;;1.16;100.00;99868.34;5032351;28;20037;-69
2023/03/08 00:24:28;;;;;;;21.63;17.88;;;;;;;1.15;100.00;99867.53;5032755;28;20037;-70
2023/03/08 00:26:53;;;;;;;22.35;18.60;;;;;;;1.18;100.00;99877.81;5032584;28;20049;-72
2023/03/08 00:29:19;;;;;;;21.15;17.65;;;;;;;1.15;100.00;99872.03;5029314;28;20116;-70
2023/03/08 00:31:44;;;;;;;20.65;18.25;;;;;;;1.11;100.00;99870.75;5032297;28;20030;-69
2023/03/08 00:34:09;;;;;;;21.48;18.65;;;;;;;1.16;100.00;99868.34;5032452;28;20432;-71
2023/03/08 00:36:35;;;;;;;21.98;17.95;;;;;;;1.15;100.00;99870.19;5032539;28;20037;-68
2023/03/08 00:39:00;;;;;;;22.55;18.30;;;;;;;1.18;100.00;99872.47;5013174;28;20040;-72
2023/03/08 00:41:25;;;;;;;21.58;18.67;;;;;;;1.13;100.00;99861.53;5032204;28;20120;-70
2023/03/08 00:43:51;;;;;;;22.52;19.20;;;;;;;1.17;100.00;99876.13;5030679;28;20029;-70
2023/03/08 00:46:16;;;;;;;22.35;18.73;;;;;;;1.17;100.00;99872.66;5014622;28;20033;-70
2023/03/08 00:48:42;;;;;;;22.42;19.15;;;;;;;1.20;100.00;99862.44;5030476;28;20036;-72
2023/03/08 00:51:07;;;;;;;23.38;19.92;;;;;;;1.22;100.00;99864.91;5032123;28;20044;-72
2023/03/08 00:53:33;;;;;;;25.23;20.45;;;;;;;1.26;100.00;99857.38;5032391;28;20171;-69
2023/03/08 00:55:59;;;;;;;25.00;21.33;;;;;;;1.29;100.00;99859.69;5032198;28;20056;-72
2023/03/08 00:58:28;;;;;;;24.42;20.85;;;;;;;1.26;100.00;99855.53;5012061;28;20021;-69
2023/03/08 01:00:54;;;;;;;23.88;19.92;;;;;;;1.26;100.00;99854.72;5026197;28;21539;-71
2023/03/08 01:03:20;;;;;;;24.38;21.13;;;;;;;1.31;100.00;99857.63;5032636;28;20116;-69
2023/03/08 01:05:49;;;;;;;26.17;21.83;;;;;;;1.29;100.00;99855.16;5029901;28;20018;-71
2023/03/08 01:08:16;;;;;;;24.60;21.05;;;;;;;1.31;100.00;99849.66;5030465;28;20044;-72
2023/03/08 01:11:00;;;;;;;25.98;21.80;;;;;;;1.38;100.00;99845.22;5034597;28;20033;-69
2023/03/08 01:13:29;;;;;;;26.33;21.63;;;;;;;1.31;100.00;99841.66;5018535;28;20030;-70
2023/03/08 01:15:54;;;;;;;25.90;22.30;;;;;;;1.32;100.00;99845.97;5035185;28;20408;-71
2023/03/08 01:18:20;;;;;;;28.38;23.75;;;;;;;1.34;100.00;99825.28;5034528;28;20087;-69
2023/03/08 01:20:55;;;;;;;28.75;24.63;;;;;;;1.35;100.00;99824.28;5036171;28;20084;-70
2023/03/08 01:23:20;;;;;;;31.42;25.23;;;;;;;1.37;100.00;99816.91;5035990;28;20037;-68
2023/03/08 01:25:45;;;;;;;31.30;25.35;;;;;;;1.34;100.00;99819.94;5035882;28;20516;-70
2023/03/08 01:28:11;;;;;;;32.90;26.23;;;;;;;1.33;100.00;99808.47;5032374;28;20028;-70
2023/03/08 01:30:36;;;;;;;32.50;27.35;;;;;;;1.32;100.00;99812.13;5033424;28;20033;-71
2023/03/08 01:33:01;;;;;;;33.40;27.67;;;;;;;1.32;100.00;99806.81;5034103;28;20022;-70
2023/03/08 01:35:27;;;;;;;33.10;28.65;;;;;;;1.37;100.00;99801.72;5034321;28;20436;-69
2023/03/08 01:37:52;;;;;;;36.42;29.80;;;;;;;1.35;100.00;99789.63;5032679;28;20036;-70
2023/03/08 01:40:18;;;;;;;36.75;29.58;;;;;;;1.42;100.00;99791.31;5034557;28;20057;-70
2023/03/08 01:42:43;;;;;;;36.45;30.23;;;;;;;1.42;100.00;99791.31;5016792;28;20091;-69
2023/03/08 01:45:46;;;;;;;35.85;30.63;;;;;;;1.45;100.00;99784.78;5029315;28;20033;-68
2023/03/08 01:48:14;;;;;;;42.38;29.67;;;;;;;1.46;100.00;99782.94;5031911;28;20053;-70
2023/03/08 01:50:40;;;;;;;36.65;30.52;;;;;;;1.47;100.00;99774.75;5023015;28;20092;-68
2023/03/08 01:53:06;;;;;;;37.53;30.88;;;;;;;1.49;100.00;99771.88;5029397;28;20037;-70
2023/03/08 01:55:31;;;;;;;36.97;31.90;;;;;;;1.42;100.00;99775.31;5014584;28;20425;-70
2023/03/08 01:57:56;;;;;;;37.15;31.02;;;;;;;1.44;100.00;99772.47;5014452;28;20080;-71
2023/03/08 02:00:24;;;;;;;42.22;33.42;;;;;;;1.47;100.00;99774.75;5032322;28;20029;-68
2023/03/08 02:03:05;;;;;;;38.08;32.15;;;;;;;1.50;100.00;99770.88;5031464;28;20049;-71
2023/03/08 02:05:32;;;;;;;39.88;32.22;;;;;;;1.48;100.00;99763.09;5029539;28;20037;-68
2023/03/08 02:07:57;;;;;;;39.03;30.75;;;;;;;1.52;100.00;99768.84;5014273;28;20026;-71
2023/03/08 02:10:23;;;;;;;38.65;33.00;;;;;;;1.50;100.00;99765.56;5014009;28;20506;-72
2023/03/08 02:12:48;;;;;;;41.58;33.25;;;;;;;1.49;100.00;99756.72;5034020;28;20116;-68
2023/03/08 02:15:17;;;;;;;38.28;31.98;;;;;;;1.52;100.00;99753.66;5034018;28;20116;-73
2023/03/08 02:17:43;;;;;;;39.55;32.53;;;;;;;1.51;100.00;99746.69;5033985;28;20112;-69
2023/03/08 02:20:29;;;;;;;41.67;34.00;;;;;;;1.54;100.00;99742.78;5000451;28;20129;-69
2023/03/08 02:22:54;;;;;;;41.05;32.20;;;;;;;1.56;100.00;99733.59;4994026;28;20117;-72
2023/03/08 02:25:22;;;;;;;40.03;33.25;;;;;;;1.58;100.00;99731.56;4994565;28;20114;-72
2023/03/08 02:27:50;;;;;;;42.15;33.53;;;;;;;1.58;100.00;99723.56;4957622;28;1087057;-69
2023/03/08 02:30:22;;;;;;;40.95;34.17;;;;;;;1.61;100.00;99725.00;5033617;28;20049;-71
2023/03/08 02:32:47;;;;;;;41.33;33.78;;;;;;;1.61;100.00;99724.19;5034730;28;20037;-69
2023/03/08 02:35:12;;;;;;;39.55;33.47;;;;;;;1.59;100.00;99719.06;5034530;28;20033;-71
2023/03/08 02:37:38;;;;;;;43.42;33.63;;;;;;;1.62;100.00;99720.53;5014080;28;20061;-68
2023/03/08 02:40:04;;;;;;;41.40;33.80;;;;;;;1.59;100.00;99711.06;5028946;28;20037;-70
2023/03/08 02:42:29;;;;;;;42.60;34.28;;;;;;;1.59;100.00;99711.88;5034391;28;20449;-70
2023/03/08 02:44:54;;;;;;;39.63;32.33;;;;;;;1.61;100.00;99709.00;5033948;28;20112;-72
2023/03/08 02:47:19;;;;;;;41.28;33.15;;;;;;;1.63;100.00;99708.81;5034851;28;20053;-73
2023/03/08 02:49:45;;;;;;;38.08;32.88;;;;;;;1.57;100.00;99705.94;5032120;28;20079;-72
2023/03/08 02:52:10;;;;;;;40.17;33.22;;;;;;;1.58;100.00;99709.41;5033884;28;20038;-73
2023/03/08 02:54:36;;;;;;;39.25;33.17;;;;;;;1.58;100.00;99704.88;5030415;28;20079;-71
2023/03/08 02:57:01;;;;;;;38.10;32.78;;;;;;;1.62;100.00;99701.84;5032131;28;20128;-69
2023/03/08 02:59:26;;;;;;;38.80;32.15;;;;;;;1.64;100.00;99692.63;5034610;28;20033;-71
2023/03/08 03:01:51;;;;;;;37.83;31.95;;;;;;;1.63;100.00;99701.66;5030787;28;20049;-71
2023/03/08 03:04:17;;;;;;;37.10;32.20;;;;;;;1.65;100.00;99698.81;5016218;28;20049;-70
2023/03/08 03:06:42;;;;;;;37.13;31.30;;;;;;;1.68;100.00;99701.88;5032516;28;20075;-69
2023/03/08 03:09:08;;;;;;;36.38;31.27;;;;;;;1.71;100.00;99698.84;5033962;28;20025;-72
2023/03/08 03:11:33;;;;;;;34.55;30.52;;;;;;;1.67;100.00;99670.09;5033694;28;20037;-70
2023/03/08 03:13:59;;;;;;;35.95;30.33;;;;;;;1.67;100.00;99676.22;5029935;28;20038;-69
2023/03/08 03:16:26;;;;;;;35.17;31.02;;;;;;;1.67;100.00;99680.75;5014218;28;20034;-70
2023/03/08 03:18:53;;;;;;;35.55;30.98;;;;;;;1.63;100.00;99676.81;5030765;28;20033;-71
2023/03/08 03:21:20;;;;;;;35.70;30.20;;;;;;;1.65;100.00;99669.47;5033434;28;20117;-70
2023/03/08 03:23:45;;;;;;;39.72;30.40;;;;;;;1.67;100.00;99672.75;5016094;28;20080;-72
2023/03/08 03:26:20;;;;;;;38.78;30.95;;;;;;;1.68;100.00;99661.88;5023021;28;20478;-68
2023/03/08 03:28:46;;;;;;;35.72;30.73;;;;;;;1.69;100.00;99663.53;5029426;28;20508;-70
2023/03/08 03:31:17;;;;;;;35.88;30.20;;;;;;;1.70;100.00;99648.34;5033099;28;20037;-68
2023/03/08 03:33:43;;;;;;;36.95;31.20;;;;;;;1.68;100.00;99645.88;5033063;28;20491;-70
2023/03/08 03:36:11;;;;;;;34.88;30.15;;;;;;;1.73;100.00;99631.97;5030542;28;20041;-69
2023/03/08 03:38:37;;;;;;;36.70;30.65;;;;;;;1.72;100.00;99627.63;5033277;28;20108;-70
2023/03/08 03:41:08;;;;;;;37.33;31.33;;;;;;;1.70;100.00;99627.84;5014397;28;20060;-70
2023/03/08 03:43:34;;;;;;;35.75;31.73;;;;;;;1.70;100.00;99627.03;5015714;28;20021;-68
2023/03/08 03:46:02;;;;;;;37.67;32.58;;;;;;;1.73;100.00;99626.63;5029630;28;20037;-72
2023/03/08 03:48:28;;;;;;;38.60;31.95;;;;;;;1.71;100.00;99621.50;5014266;28;20033;-68
2023/03/08 03:50:59;;;;;;;39.50;32.53;;;;;;;1.71;100.00;99621.50;5015589;28;20079;-72
2023/03/08 03:53:27;;;;;;;38.45;32.45;;;;;;;1.72;100.00;99623.16;5033128;28;20112;-69
2023/03/08 03:55:52;;;;;;;38.95;32.55;;;;;;;1.71;100.00;99624.16;5031188;28;20039;-68
2023/03/08 03:58:18;;;;;;;39.45;33.17;;;;;;;1.72;100.00;99614.31;5011306;28;20033;-71
2023/03/08 04:00:43;;;;;;;36.85;31.77;;;;;;;1.74;100.00;99613.09;5008567;28;20695;-69
2023/03/08 04:03:09;;;;;;;35.55;30.38;;;;;;;1.76;100.00;99611.03;5032520;28;20029;-71
2023/03/08 04:05:34;;;;;;;37.15;30.90;;;;;;;1.69;100.00;99604.88;5030624;28;20038;-70
2023/03/08 04:07:59;;;;;;;35.42;30.23;;;;;;;1.73;100.00;99600.75;5032575;28;20392;-70
2023/03/08 04:10:25;;;;;;;32.78;29.17;;;;;;;1.74;100.00;99601.59;5032756;28;20033;-69
2023/03/08 04:12:51;;;;;;;32.22;27.52;;;;;;;1.67;100.00;99603.41;5032921;28;20032;-70
2023/03/08 04:15:16;;;;;;;31.33;26.95;;;;;;;1.68;100.00;99594.41;5029507;28;20021;-68
2023/03/08 04:17:42;;;;;;;29.58;26.05;;;;;;;1.72;100.00;99596.47;5031756;28;20029;-68
2023/03/08 04:20:08;;;;;;;30.00;26.23;;;;;;;1.70;100.00;99581.69;5032640;28;20473;-67
2023/03/08 04:22:34;;;;;;;28.85;24.45;;;;;;;1.68;100.00;99576.53;5032850;28;20539;-72
2023/03/08 04:24:59;;;;;;;31.30;24.77;;;;;;;1.72;100.00;99576.97;5032770;28;20025;-69
2023/03/08 04:27:24;;;;;;;28.20;24.48;;;;;;;1.68;100.00;99573.88;5027899;28;20105;-68
2023/03/08 04:29:50;;;;;;;25.95;22.55;;;;;;;1.64;100.00;99572.63;5032707;28;20025;-71
2023/03/08 04:32:16;;;;;;;25.30;22.58;;;;;;;1.69;100.00;99561.34;5030997;28;20041;-67
2023/03/08 04:34:44;;;;;;;25.50;22.80;;;;;;;1.69;100.00;99556.03;5032885;28;20033;-71
2023/03/08 04:37:10;;;;;;;24.73;21.95;;;;;;;1.63;100.00;99555.00;5029529;28;20095;-71
2023/03/08 04:39:36;;;;;;;23.83;21.20;;;;;;;1.61;100.00;99543.69;5029881;28;20112;-71
2023/03/08 04:42:01;;;;;;;25.65;22.00;;;;;;;1.66;100.00;99546.59;5032110;28;20453;-67
2023/03/08 04:44:26;;;;;;;22.30;19.90;;;;;;;1.63;100.00;99540.81;5031105;28;20029;-68
2023/03/08 04:46:52;;;;;;;24.05;20.13;;;;;;;1.60;100.00;99536.69;5030185;28;20113;-70
2023/03/08 04:49:18;;;;;;;23.15;20.45;;;;;;;1.58;100.00;99536.09;5030709;28;20041;-70
2023/03/08 04:51:43;;;;;;;22.05;19.65;;;;;;;1.61;100.00;99534.88;5032667;28;20456;-70
2023/03/08 04:54:08;;;;;;;22.38;19.90;;;;;;;1.59;100.00;99535.88;5014454;28;20048;-69
2023/03/08 04:56:34;;;;;;;22.20;18.70;;;;;;;1.57;100.00;99521.94;5030348;28;20033;-70
2023/03/08 04:58:59;;;;;;;22.40;19.65;;;;;;;1.62;100.00;99517.88;5014695;28;20029;-69
2023/03/08 05:01:25;;;;;;;22.55;18.92;;;;;;;1.59;100.00;99508.41;5028820;28;20041;-72
2023/03/08 05:03:51;;;;;;;20.17;18.05;;;;;;;1.64;100.00;99510.47;5032397;28;20426;-70
2023/03/08 05:06:17;;;;;;;20.92;18.17;;;;;;;1.55;100.00;99497.31;5028744;28;20037;-70
2023/03/08 05:08:43;;;;;;;19.40;16.95;;;;;;;1.56;100.00;99493.63;5032135;28;20125;-70
2023/03/08 05:11:10;;;;;;;19.35;17.23;;;;;;;1.56;100.00;99498.97;5031956;28;20033;-70
2023/03/08 05:13:37;;;;;;;20.67;17.30;;;;;;;1.58;100.00;99490.75;5032456;28;20034;-70
2023/03/08 05:16:05;;;;;;;20.25;17.77;;;;;;;1.58;100.00;99486.25;5029667;28;20108;-70
2023/03/08 05:18:30;;;;;;;20.67;17.35;;;;;;;1.54;100.00;99490.34;5014513;28;20381;-70
2023/03/08 05:20:58;;;;;;;18.90;16.83;;;;;;;1.53;100.00;99483.38;5032163;28;20029;-70
2023/03/08 05:23:25;;;;;;;20.63;17.60;;;;;;;1.57;100.00;99481.09;5030311;28;20237;-71
2023/03/08 05:25:52;;;;;;;21.42;17.40;;;;;;;1.52;100.00;99476.38;5028897;28;20040;-69
2023/03/08 05:28:18;;;;;;;20.15;17.63;;;;;;;1.46;100.00;99473.69;5031975;28;20026;-71
2023/03/08 05:30:43;;;;;;;20.17;17.23;;;;;;;1.52;100.00;99463.03;5032110;28;20489;-71
2023/03/08 05:33:09;;;;;;;19.88;17.05;;;;;;;1.51;100.00;99461.41;5031534;28;20581;-70
2023/03/08 05:35:34;;;;;;;19.77;17.33;;;;;;;1.49;100.00;99458.13;5030491;28;20044;-68
2023/03/08 05:37:59;;;;;;;19.02;16.92;;;;;;;1.53;100.00;99447.88;5024719;28;20423;-69
2023/03/08 05:40:25;;;;;;;21.85;17.50;;;;;;;1.51;100.00;99441.91;5031724;28;20063;-69
2023/03/08 05:42:50;;;;;;;20.25;16.90;;;;;;;1.46;100.00;99431.03;5011046;28;20034;-68
2023/03/08 05:45:15;;;;;;;19.00;16.83;;;;;;;1.47;100.00;99424.69;5031618;28;20153;-72
2023/03/08 05:47:41;;;;;;;20.38;16.17;;;;;;;1.45;100.00;99424.06;5014176;28;20033;-72
2023/03/08 05:50:07;;;;;;;19.10;15.50;;;;;;;1.47;100.00;99430.03;5031695;28;20473;-70
2023/03/08 05:52:32;;;;;;;17.05;13.90;;;;;;;1.37;100.00;99414.41;5028097;28;20034;-68
2023/03/08 05:54:57;;;;;;;20.70;15.27;;;;;;;1.46;100.00;99410.53;5032481;28;20358;-69
2023/03/08 05:57:23;;;;;;;16.67;14.43;;;;;;;1.39;100.00;99413.19;5017486;28;20029;-68
2023/03/08 05:59:48;;;;;;;12.27;10.77;;;;;;;1.36;100.00;99402.94;5013915;28;20504;-69
2023/03/08 06:02:13;;;;;;;12.60;9.68;;;;;;;1.28;100.00;99395.09;5031787;28;20049;-69
2023/03/08 06:04:39;;;;;;;13.43;9.75;;;;;;;1.23;100.00;99389.56;5035190;28;20104;-69
2023/03/08 06:07:04;;;;;;;11.10;9.20;;;;;;;1.22;100.00;99386.09;5033137;28;20030;-68
2023/03/08 06:09:30;;;;;;;14.63;10.88;;;;;;;1.15;100.00;99385.22;5034232;28;20030;-68
2023/03/08 06:11:55;;;;;;;12.15;9.85;;;;;;;1.16;100.00;99383.38;5033153;28;20033;-69
2023/03/08 06:14:20;;;;;;;11.73;9.23;;;;;;;1.13;100.00;99392.59;5035079;28;20036;-72
2023/03/08 06:16:47;;;;;;;13.00;9.63;;;;;;;1.10;100.00;99392.16;5017432;28;20034;-71
2023/03/08 06:19:13;;;;;;;18.00;10.32;;;;;;;1.14;100.00;99388.91;5034872;28;20116;-71
2023/03/08 06:21:39;;;;;;;12.30;9.57;;;;;;;1.15;100.00;99377.22;5030123;28;20091;-71
2023/03/08 06:24:04;;;;;;;9.65;8.15;;;;;;;1.07;100.00;99390.72;5035319;28;20475;-70
2023/03/08 06:26:29;;;;;;;11.60;7.80;;;;;;;1.04;100.00;99389.28;5034475;28;20374;-71
2023/03/08 06:28:55;;;;;;;10.98;7.93;;;;;;;1.01;100.00;99384.38;5035050;28;20039;-70
2023/03/08 06:31:20;;;;;;;11.50;8.80;;;;;;;0.99;100.00;99380.25;5032917;28;20037;-68
2023/03/08 06:33:45;;;;;;;10.93;8.05;;;;;;;0.98;100.00;99383.91;5017096;28;20025;-71
2023/03/08 06:36:14;;;;;;;10.98;8.80;;;;;;;1.02;100.00;99374.53;5032897;28;20034;-70
2023/03/08 06:38:40;;;;;;;10.48;7.70;;;;;;;0.98;100.00;99371.44;5016279;28;20040;-72
2023/03/08 06:41:07;;;;;;;10.48;7.07;;;;;;;1.02;100.00;99367.34;5032892;28;20591;-68
2023/03/08 06:43:33;;;;;;;9.60;7.30;;;;;;;0.95;100.00;99360.34;5034380;28;20069;-70
2023/03/08 06:46:03;;;;;;;8.90;6.07;;;;;;;0.95;100.00;99365.66;5016806;28;20393;-69
2023/03/08 06:48:28;;;;;;;6.35;5.25;;;;;;;0.97;100.00;99364.47;5016610;28;20465;-69
2023/03/08 06:50:54;;;;;;;6.45;5.35;;;;;;;0.95;100.00;99363.00;5005197;28;20038;-69
2023/03/08 06:53:19;;;;;;;6.90;5.28;;;;;;;0.87;100.00;99375.47;4994946;28;20050;-71
2023/03/08 06:55:44;;;;;;;6.35;4.78;;;;;;;0.85;100.00;99379.38;4993906;28;20466;-70
2023/03/08 06:58:10;;;;;;;8.57;5.00;;;;;;;0.82;100.00;99380.56;4993521;28;20026;-70
2023/03/08 07:00:36;;;;;;;5.07;4.32;;;;;;;0.76;100.00;99376.03;5001238;28;20037;-69
2023/03/08 07:03:01;;;;;;;6.95;4.45;;;;;;;0.76;100.00;99365.41;5030680;28;20053;-71
2023/03/08 07:05:27;;;;;;;6.88;4.63;;;;;;;0.70;100.00;99372.31;5016362;28;20341;-71
2023/03/08 07:07:52;;;;;;;6.40;4.57;;;;;;;0.74;100.00;99370.09;5015331;28;20017;-71
2023/03/08 07:10:20;;;;;;;6.47;4.72;;;;;;;0.79;100.00;99362.34;5012443;28;20034;-70
2023/03/08 07:12:49;;;;;;;6.90;4.60;;;;;;;0.76;100.00;99364.59;5033939;28;20144;-69
2023/03/08 07:15:17;;;;;;;6.32;4.47;;;;;;;0.74;100.00;99351.47;5032353;28;20029;-70
2023/03/08 07:17:44;;;;;;;5.10;4.20;;;;;;;0.78;100.00;99360.69;5031309;28;20503;-70
2023/03/08 07:20:12;;;;;;;6.85;5.50;;;;;;;0.76;100.00;99354.75;5016276;28;20034;-70
2023/03/08 07:22:38;;;;;;;9.75;6.38;;;;;;;0.79;100.00;99353.53;5034070;28;20025;-69
2023/03/08 07:25:04;;;;;;;12.30;6.28;;;;;;;0.74;100.00;99350.63;5033135;28;20069;-70
2023/03/08 07:27:29;;;;;;;13.38;6.78;;;;;;;0.73;100.00;99339.16;5032076;28;20073;-69
2023/03/08 07:29:54;;;;;;;8.80;6.00;;;;;;;0.76;100.00;99333.44;5015924;28;20033;-71
2023/03/08 07:32:19;;;;;;;8.77;4.93;;;;;;;0.69;100.00;99329.91;5033473;28;20526;-70
2023/03/08 07:34:45;;;;;;;6.18;5.00;;;;;;;0.78;100.00;99333.25;5033776;28;20033;-71
2023/03/08 07:37:12;;;;;;;10.35;6.75;;;;;;;0.78;100.00;99330.56;5014313;28;20033;-70
2023/03/08 07:39:37;;;;;;;6.72;4.82;;;;;;;0.83;100.00;99326.31;5017276;28;20390;-72
2023/03/08 07:42:03;;;;;;;9.10;5.50;;;;;;;0.75;100.00;99315.00;4995647;28;20034;-69
2023/03/08 07:44:28;;;;;;;6.95;4.90;;;;;;;0.81;100.00;99319.53;5013303;28;20506;-69
2023/03/08 07:46:53;;;;;;;10.63;9.25;;;;;;;0.83;100.00;99318.31;5006023;28;20025;-70
2023/03/08 07:49:18;;;;;;;8.40;6.60;;;;;;;0.84;100.00;99317.28;5014173;28;20037;-70
2023/03/08 07:51:44;;;;;;;6.75;5.47;;;;;;;0.84;100.00;99319.94;5015549;28;20048;-70
2023/03/08 07:54:11;;;;;;;6.85;5.20;;;;;;;0.86;100.00;99320.59;5013406;28;20035;-72
2023/03/08 07:56:37;;;;;;;8.00;6.57;;;;;;;0.91;100.00;99311.16;5029580;28;20450;-68
2023/03/08 07:59:02;;;;;;;72.82;50.33;;;;;;;0.89;100.00;99306.03;5033557;28;20104;-70
2023/03/08 08:01:28;;;;;;;96.85;59.92;;;;;;;0.86;100.00;99301.94;5019340;28;20488;-70
2023/03/08 08:03:53;;;;;;;58.90;35.67;;;;;;;0.83;100.00;99296.16;5033319;28;20044;-68
2023/03/08 08:06:18;;;;;;;139.23;77.80;;;;;;;0.82;100.00;99295.38;5030819;28;20061;-69
2023/03/08 08:08:44;;;;;;;94.13;57.22;;;;;;;0.83;100.00;99290.84;5009629;28;20053;-68
2023/03/08 08:11:15;;;;;;;73.95;47.33;;;;;;;0.88;100.00;99302.56;5011917;28;20088;-71
2023/03/08 08:13:40;;;;;;;84.47;46.78;;;;;;;0.90;100.00;99298.88;5012012;28;20091;-69
2023/03/08 08:16:07;;;;;;;74.82;44.80;;;;;;;0.86;100.00;99296.63;5015064;28;20029;-72
2023/03/08 08:18:33;;;;;;;20.75;16.85;;;;;;;0.83;100.00;99294.34;5032325;28;20033;-70
2023/03/08 08:21:09;;;;;;;30.35;25.40;;;;;;;0.84;100.00;99287.97;5013898;28;20034;-72
2023/03/08 08:23:35;;;;;;;22.55;20.15;;;;;;;0.83;100.00;99265.06;5032700;28;20101;-68
2023/03/08 08:26:05;;;;;;;17.48;15.50;;;;;;;0.86;100.00;99259.34;5028560;28;20057;-71
2023/03/08 08:28:30;;;;;;;13.45;11.02;;;;;;;0.89;100.00;99250.09;5028722;28;20037;-68
2023/03/08 08:31:19;;;;;;;17.10;13.75;;;;;;;0.92;100.00;99259.53;5032355;28;20037;-70
2023/03/08 08:33:45;;;;;;;9.45;8.48;;;;;;;0.91;100.00;99261.38;5031500;28;20029;-69
2023/03/08 08:36:13;;;;;;;8.90;8.00;;;;;;;0.83;100.00;99253.56;5030954;28;20464;-69
2023/03/08 08:38:39;;;;;;;9.13;8.18;;;;;;;0.78;100.00;99253.38;5032426;28;20354;-70
2023/03/08 08:41:06;;;;;;;9.88;8.88;;;;;;;0.76;100.00;99242.91;5032332;28;20473;-70
2023/03/08 08:43:33;;;;;;;9.93;8.30;;;;;;;0.76;100.00;99236.78;5030425;28;20053;-71
2023/03/08 08:45:59;;;;;;;9.68;8.30;;;;;;;0.82;100.00;99244.75;5029978;28;20037;-70
2023/03/08 08:48:26;;;;;;;8.50;7.70;;;;;;;0.78;100.00;99245.38;5014343;28;20075;-72
2023/03/08 08:50:52;;;;;;;7.50;6.78;;;;;;;0.79;100.00;99255.81;5032488;28;20040;-70
2023/03/08 08:53:18;;;;;;;8.30;7.40;;;;;;;0.81;100.00;99252.97;5014460;28;20022;-72
2023/03/08 08:55:43;;;;;;;8.32;6.93;;;;;;;0.84;100.00;99265.88;5013107;28;20033;-72
2023/03/08 08:58:09;;;;;;;7.78;6.97;;;;;;;0.86;100.00;99269.97;5028178;28;20033;-75
2023/03/08 09:00:35;;;;;;;8.77;7.30;;;;;;;0.90;100.00;99278.38;5007988;28;20036;-72
2023/03/08 09:03:01;;;;;;;7.30;6.60;;;;;;;0.87;100.00;99278.78;5013984;28;20089;-70
2023/03/08 09:05:27;;;;;;;8.68;7.75;;;;;;;0.82;100.00;99282.06;5014474;28;20500;-69
2023/03/08 09:07:57;;;;;;;9.02;8.13;;;;;;;0.80;100.00;99286.75;5011366;28;20073;-72
2023/03/08 09:10:24;;;;;;;9.73;7.90;;;;;;;0.85;100.00;99284.31;5012553;28;20120;-73
2023/03/08 09:12:49;;;;;;;9.35;8.13;;;;;;;0.82;100.00;99260.75;5021528;28;20065;-72
2023/03/08 09:15:15;;;;;;;11.20;8.95;;;;;;;0.81;100.00;99253.78;5028301;28;20064;-71
2023/03/08 09:17:40;;;;;;;9.70;8.68;;;;;;;0.80;100.00;99233.50;5028254;28;20034;-70
2023/03/08 09:20:09;;;;;;;10.40;8.63;;;;;;;0.79;100.00;99215.88;5025209;28;20431;-69
2023/03/08 09:22:38;;;;;;;9.10;8.05;;;;;;;0.81;100.00;99219.16;5023248;28;20041;-71
2023/03/08 09:25:05;;;;;;;10.02;8.30;;;;;;;0.83;100.00;99211.81;5031425;28;20033;-70
2023/03/08 09:27:30;;;;;;;10.10;8.80;;;;;;;0.86;100.00;99205.22;5020730;28;20042;-72
2023/03/08 09:29:56;;;;;;;11.85;10.65;;;;;;;0.86;100.00;99199.91;5014848;28;20088;-71
2023/03/08 09:32:21;;;;;;;10.40;9.30;;;;;;;0.91;100.00;99193.97;4997927;28;20038;-72
2023/03/08 09:34:47;;;;;;;10.15;8.65;;;;;;;0.90;100.00;99200.34;5011201;28;20063;-71
2023/03/08 09:37:12;;;;;;;8.90;7.80;;;;;;;0.87;100.00;99186.38;5018312;28;20052;-71
2023/03/08 09:39:39;;;;;;;8.70;7.72;;;;;;;0.85;100.00;99191.09;5034191;28;20132;-70
2023/03/08 09:42:17;;;;;;;8.32;7.35;;;;;;;0.97;100.00;99190.53;5031512;28;20152;-69
2023/03/08 09:44:46;;;;;;;6.88;6.20;;;;;;;0.95;100.00;99192.53;5017725;28;20041;-73
2023/03/08 09:47:17;;;;;;;7.40;6.70;;;;;;;0.98;100.00;99182.31;5016275;28;20040;-74
2023/03/08 09:49:46;;;;;;;8.40;6.85;;;;;;;1.00;100.00;99171.47;5016741;28;20032;-76
2023/03/08 09:52:29;;;;;;;8.13;7.32;;;;;;;1.04;100.00;99170.84;5030508;28;20037;-70
2023/03/08 09:54:57;;;;;;;153.35;94.82;;;;;;;1.15;100.00;99177.41;5030749;28;20033;-70
2023/03/08 09:57:27;;;;;;;55.88;42.88;;;;;;;1.09;100.00;99177.38;5015724;28;20465;-71
2023/03/08 09:59:56;;;;;;;13.50;12.05;;;;;;;1.15;100.00;99172.09;5015568;28;20398;-70
2023/03/08 10:03:14;;;;;;;11.98;10.77;;;;;;;1.25;100.00;99166.31;5020033;28;20145;-73
2023/03/08 10:05:50;;;;;;;16.15;14.55;;;;;;;1.28;100.00;99165.91;4968893;28;20071;-70
2023/03/08 10:08:19;;;;;;;16.88;13.63;;;;;;;1.26;100.00;99154.66;4997970;28;20053;-70
2023/03/08 10:10:48;;;;;;;13.70;12.30;;;;;;;1.31;100.00;99164.69;4998900;28;20037;-71
2023/03/08 10:13:38;;;;;;;14.40;12.90;;;;;;;1.39;100.00;99177.81;5015341;28;20037;-73
2023/03/08 10:16:16;;;;;;;16.25;13.10;;;;;;;1.40;100.00;99190.09;5017127;28;20366;-71
2023/03/08 10:18:50;;;;;;;14.68;13.18;;;;;;;1.33;100.00;99181.28;5007742;28;20068;-69
2023/03/08 10:21:18;;;;;;;16.13;14.52;;;;;;;1.33;100.00;99170.63;5031515;28;20469;-69
2023/03/08 10:23:56;;;;;;;17.05;15.25;;;;;;;1.34;100.00;99161.63;5032555;28;20181;-69
2023/03/08 10:26:24;;;;;;;19.45;17.45;;;;;;;1.31;100.00;99164.69;5016968;28;20400;-71
2023/03/08 10:28:50;;;;;;;18.70;16.80;;;;;;;1.38;100.00;99154.84;5034839;28;20033;-72
2023/03/08 10:31:24;;;;;;;17.15;15.35;;;;;;;1.44;100.00;99161.22;5034575;28;20030;-72
2023/03/08 10:33:59;;;;;;;16.42;14.55;;;;;;;1.39;100.00;99159.97;5031990;28;20025;-68
2023/03/08 10:36:25;;;;;;;19.55;17.45;;;;;;;1.44;100.00;99159.34;5029835;28;20080;-73
2023/03/08 10:39:08;;;;;;;17.55;15.75;;;;;;;1.53;100.00;99168.78;5026239;28;20044;-75
2023/03/08 10:41:41;;;;;;;17.15;15.07;;;;;;;1.56;100.00;99144.34;5026286;28;20065;-71
2023/03/08 10:44:13;;;;;;;18.27;16.38;;;;;;;1.62;100.00;99129.38;5015556;28;20030;-73
2023/03/08 10:46:46;;;;;;;15.85;14.18;;;;;;;1.57;100.00;99132.69;5033432;28;20069;-71
2023/03/08 10:49:17;;;;;;;16.75;15.05;;;;;;;1.59;100.00;99140.47;5013427;28;20085;-71
2023/03/08 10:51:59;;;;;;;16.47;14.67;;;;;;;1.59;100.00;99141.28;5021243;28;20472;-72
2023/03/08 10:54:26;;;;;;;16.50;14.68;;;;;;;1.54;100.00;99132.25;5016520;28;20280;-72
2023/03/08 10:57:01;;;;;;;18.67;15.50;;;;;;;1.59;100.00;99138.59;5034207;28;20152;-72
2023/03/08 10:59:33;;;;;;;16.52;14.90;;;;;;;1.53;100.00;99147.44;5033961;28;20083;-71
2023/03/08 11:02:17;;;;;;;17.15;14.73;;;;;;;1.55;100.00;99153.38;5025033;28;20132;-72
2023/03/08 11:04:54;;;;;;;17.63;15.43;;;;;;;1.55;100.00;99158.72;5034425;28;20034;-72
2023/03/08 11:07:23;;;;;;;16.83;15.13;;;;;;;1.52;100.00;99156.47;5033022;28;20037;-72
2023/03/08 11:09:49;;;;;;;17.73;15.93;;;;;;;1.51;100.00;99157.50;5033990;28;20426;-72
2023/03/08 11:12:23;;;;;;;19.15;17.00;;;;;;;1.56;100.00;99149.69;5031825;28;20163;-73
2023/03/08 11:14:48;;;;;;;17.58;15.68;;;;;;;1.56;100.00;99160.34;5031864;28;20035;-72
2023/03/08 11:17:23;;;;;;;15.70;14.10;;;;;;;1.56;100.00;99160.34;5011932;28;20034;-73
2023/03/08 11:20:10;;;;;;;17.10;14.70;;;;;;;1.52;100.00;99153.78;5013832;28;20036;-71
2023/03/08 11:22:47;;;;;;;15.55;13.93;;;;;;;1.54;100.00;99133.09;5033888;28;20584;-72